Beaver Creek, Illinois
Current Conditions -  °F | °C
As of 8:35 AM on Tuesday 21 Oct 2014 (Local Time) from K3LF Reporting Station
Clear Clear  
Wind Chill: 47°   Ceiling: Unl
Heat Index: 47°   Visibility: 10mi
Dew Point: 43°   Wind: 0mph
Humidity: 88%   Direction: NA
Pressure: 30.11"   Gusts: NA
Location:  38.895°N, 89.397°W
Report Text: K3LF 211335Z AUTO 00000KT 10SM CLR 08/06 A3011 RMK AO2 T00810063
Loading
Personal Weather Stations






























Interactive Weather Map New forecast layout! Learn more

10-Day Weather Forecast

Advertisements
Track Severe Weather on mobile